Flight Track Log - Related Links

Times and Time Zones

All times are in EDT time to prevent confusion due to time zone crossing. See the N1944E flight status page for this flight to view local times or setup timezone preferences in your user account.

Time Position Orientation Groundspeed Altitude Reporting Facility
EDT Latitude Longitude Course Direction KTS MPH feet Rate Location/Type
Tue 06:45:47 PM 41.6700 -109.0306 31° Northeast 155 178 9,500  Level Salt Center
Tue 06:46:49 PM 41.7069 -109.0067 26° Northeast 154 177 10,100 732 Climbing Salt Center
Tue 06:47:50 PM 41.7442 -108.9858 23° Northeast 152 175 11,000 780 Climbing Salt Center
Tue 06:48:52 PM 41.7881 -108.9589 25° Northeast 154 177 11,700 683 Climbing Salt Center
Tue 06:49:53 PM 41.8278 -108.9286 30° Northeast 162 186 12,400 1,073 Climbing Salt Center
Tue 06:50:55 PM 41.8714 -108.8850 37° Northeast 170 196 13,900 1,073 Climbing Salt Center
Tue 06:51:00 PM 41.8634 -108.8593 31° Northeast  Level FlightAware
Tue 06:51:56 PM 41.9103 -108.8519 32° Northeast 172 198 14,600  Level Salt Center
Tue 06:52:58 PM 41.9619 -108.8144 28° Northeast 181 208 15,500 683 Climbing Salt Center
Tue 06:53:59 PM 42.0072 -108.7806 29° Northeast 188 216 16,000 585 Climbing Salt Center
Tue 06:55:01 PM 42.0567 -108.7486 26° Northeast 197 227 16,700 585 Climbing Salt Center
Tue 06:56:02 PM 42.1092 -108.7067 31° Northeast 199 229 17,200 585 Climbing Salt Center
Tue 06:57:04 PM 42.1550 -108.6642 35° Northeast 202 232 17,900 341 Climbing Salt Center
Tue 06:58:05 PM 42.2142 -108.6175 30° Northeast 212 244 17,900  Level Salt Center
Tue 06:59:07 PM 42.2692 -108.5742 30° Northeast 227 261 17,900  Level Salt Center
Tue 07:00:08 PM 42.3219 -108.5344 29° Northeast 230 265 17,900 49 Level Salt Center
Tue 07:01:10 PM 42.3822 -108.4919 28° Northeast 224 258 18,000 -49 Climbing Salt Center
Tue 07:02:11 PM 42.4356 -108.4594 24° Northeast 220 253 17,800  Descending Salt Center
Tue 07:03:13 PM 42.5033 -108.4431 10° North 219 252 18,000  Climbing Salt Center
Tue 07:04:14 PM 42.5592 -108.4492 355° North 211 243 17,800 -49 Descending Salt Center
Tue 07:05:16 PM 42.6228 -108.4647 350° North 208 239 17,900 98 Climbing Salt Center
Tue 07:06:17 PM 42.6775 -108.4825 347° North 211 243 18,000  Climbing Salt Center
Tue 07:07:19 PM 42.7322 -108.4931 352° North 208 239 17,900 -98 Descending Salt Center
Tue 07:08:20 PM 42.7894 -108.5197 341° North 196 226 17,800 -49 Descending Salt Center
Tue 07:09:22 PM 42.8386 -108.5486 337° Northwest 199 229 17,800 -146 Level Salt Center
Tue 07:10:23 PM 42.8942 -108.5831 336° Northwest 197 227 17,500 -439 Descending Salt Center
Tue 07:11:25 PM 42.9475 -108.6108 339° North 209 241 16,900 -634 Descending Salt Center
Tue 07:12:26 PM 43.0169 -108.6347 346° North 229 264 16,200 -537 Descending Salt Center
Tue 07:13:28 PM 43.0769 -108.6472 351° North 229 264 15,800 -146 Descending Salt Center
Tue 07:14:29 PM 43.1353 -108.6503 358° North 222 255 15,900  Climbing Salt Center
Tue 07:15:31 PM 43.2003 -108.6517 359° North 212 244 15,800  Descending Salt Center
Tue 07:16:32 PM 43.2519 -108.6606 353° North 203 234 15,900 49 Climbing Salt Center
Tue 07:17:34 PM 43.3139 -108.6728 352° North 201 231 15,900 -49 Level Salt Center
Tue 07:18:35 PM 43.3658 -108.6881 348° North 198 228 15,800  Descending Salt Center
Tue 07:19:37 PM 43.4181 -108.7067 345° North 199 229 15,900 49 Climbing Salt Center
Tue 07:20:38 PM 43.4794 -108.7278 346° North 201 231 15,900 -49 Level Salt Center
Tue 07:21:40 PM 43.5331 -108.7447 347° North 204 235 15,800 -49 Descending Salt Center
Tue 07:22:41 PM 43.5986 -108.7394 North 208 239 15,800 49 Level Salt Center
Tue 07:23:43 PM 43.6531 -108.7297 North 209 241 15,900 49 Climbing Salt Center
Tue 07:24:44 PM 43.7144 -108.7194 North 203 234 15,900 98 Level Salt Center
Tue 07:25:46 PM 43.7678 -108.7114 North 202 232 16,100 97 Climbing Salt Center
Tue 07:26:48 PM 43.8208 -108.7069 North 200 230 16,100  Level Salt Center
Tue 07:27:49 PM 43.8836 -108.7056 North 200 230 16,100  Level Salt Center
Tue 07:28:51 PM 43.9375 -108.7025 North 201 231 16,100  Level Salt Center
Tue 07:29:52 PM 43.9997 -108.6944 North 202 232 16,100  Level Salt Center
Tue 07:30:54 PM 44.0544 -108.6903 North 203 234 16,100  Level Salt Center
Tue 07:31:55 PM 44.1092 -108.6900 360° North 204 235 16,100 -488 Level Salt Center
Tue 07:32:57 PM 44.1725 -108.6939 357° North 203 234 15,100 -878 Descending Salt Center
Tue 07:33:58 PM 44.2333 -108.6906 North 215 247 14,300 -878 Descending Salt Center
Tue 07:35:00 PM 44.3000 -108.6847 North 217 250 13,300 -774 Descending Salt Center
Tue 07:36:02 PM 44.3569 -108.6822 North 215 247 12,700 -634 Descending Salt Center
Tue 07:37:03 PM 44.4114 -108.6756 North 211 243 12,000 -780 Descending Salt Center
Tue 07:38:05 PM 44.4722 -108.6717 North 203 234 11,100 -780 Descending Salt Center
Tue 07:39:06 PM 44.5236 -108.6678 North 197 227 10,400 -683 Descending Salt Center
Tue 07:40:08 PM 44.5769 -108.6714 357° North 184 212 9,700 -871 Descending Salt Center
Tue 07:41:10 PM 44.6186 -108.7083 328° Northwest 183 211 8,600 -829 Descending Salt Center
Tue 07:42:11 PM 44.6533 -108.7544 317° Northwest 182 209 8,000 -537 Descending Salt Center
Tue 07:43:13 PM 44.6256 -108.8281 242° Southwest 190 219 7,500 -244 Descending Salt Center
Tue 07:44:14 PM 44.6031 -108.8786 238° Southwest 176 203 7,500 -488 Level Salt Center
Tue 07:45:16 PM 44.5731 -108.9306 231° Southwest 161 185 6,500 -968 Descending Salt Center

Login

Don't have an account? Register now (free) for customized features, flight alerts, and more!